sensor_id;sensor_type;location;lat;lon;timestamp;P1;durP1;ratioP1;P2;durP2;ratioP2
20758;SDS011;10539;53.686;9.158;2022-10-17T00:01:10;10.00;;;3.50;;
20758;SDS011;10539;53.686;9.158;2022-10-17T00:03:37;11.00;;;3.80;;
20758;SDS011;10539;53.686;9.158;2022-10-17T00:06:05;12.53;;;3.53;;
20758;SDS011;10539;53.686;9.158;2022-10-17T00:08:32;11.23;;;3.33;;
20758;SDS011;10539;53.686;9.158;2022-10-17T00:10:59;12.27;;;3.67;;
20758;SDS011;10539;53.686;9.158;2022-10-17T00:13:28;9.97;;;3.10;;
20758;SDS011;10539;53.686;9.158;2022-10-17T00:15:54;8.07;;;3.70;;
20758;SDS011;10539;53.686;9.158;2022-10-17T00:18:19;14.90;;;3.67;;
20758;SDS011;10539;53.686;9.158;2022-10-17T00:20:45;8.13;;;3.73;;
20758;SDS011;10539;53.686;9.158;2022-10-17T00:23:11;9.50;;;3.60;;
20758;SDS011;10539;53.686;9.158;2022-10-17T00:25:37;12.60;;;3.73;;
20758;SDS011;10539;53.686;9.158;2022-10-17T00:28:05;7.17;;;3.90;;
20758;SDS011;10539;53.686;9.158;2022-10-17T00:30:34;11.67;;;3.53;;
20758;SDS011;10539;53.686;9.158;2022-10-17T00:33:00;12.87;;;3.67;;
20758;SDS011;10539;53.686;9.158;2022-10-17T00:35:25;10.43;;;3.77;;
20758;SDS011;10539;53.686;9.158;2022-10-17T00:37:51;9.70;;;4.00;;
20758;SDS011;10539;53.686;9.158;2022-10-17T00:40:17;9.70;;;3.40;;
20758;SDS011;10539;53.686;9.158;2022-10-17T00:42:42;15.13;;;3.80;;
20758;SDS011;10539;53.686;9.158;2022-10-17T00:45:13;11.00;;;3.77;;
20758;SDS011;10539;53.686;9.158;2022-10-17T00:47:40;8.40;;;3.50;;
20758;SDS011;10539;53.686;9.158;2022-10-17T00:50:08;9.73;;;3.60;;
20758;SDS011;10539;53.686;9.158;2022-10-17T00:52:35;8.80;;;3.40;;
20758;SDS011;10539;53.686;9.158;2022-10-17T00:55:03;8.07;;;3.50;;
20758;SDS011;10539;53.686;9.158;2022-10-17T00:57:53;14.53;;;4.10;;
20758;SDS011;10539;53.686;9.158;2022-10-17T01:00:20;9.20;;;3.60;;
20758;SDS011;10539;53.686;9.158;2022-10-17T01:02:48;10.83;;;3.87;;
20758;SDS011;10539;53.686;9.158;2022-10-17T01:05:14;10.83;;;3.57;;
20758;SDS011;10539;53.686;9.158;2022-10-17T01:07:40;9.13;;;3.27;;
20758;SDS011;10539;53.686;9.158;2022-10-17T01:10:08;9.47;;;3.93;;
20758;SDS011;10539;53.686;9.158;2022-10-17T01:12:40;10.93;;;3.77;;
20758;SDS011;10539;53.686;9.158;2022-10-17T01:15:09;9.80;;;3.90;;
20758;SDS011;10539;53.686;9.158;2022-10-17T01:17:56;11.97;;;4.07;;
20758;SDS011;10539;53.686;9.158;2022-10-17T01:34:14;12.23;;;3.70;;
20758;SDS011;10539;53.686;9.158;2022-10-17T01:36:53;8.30;;;3.43;;
20758;SDS011;10539;53.686;9.158;2022-10-17T01:39:40;8.50;;;3.50;;
20758;SDS011;10539;53.686;9.158;2022-10-17T01:42:20;6.77;;;3.63;;
20758;SDS011;10539;53.686;9.158;2022-10-17T01:45:12;11.70;;;4.00;;
20758;SDS011;10539;53.686;9.158;2022-10-17T01:48:03;11.63;;;3.70;;
20758;SDS011;10539;53.686;9.158;2022-10-17T01:50:34;11.17;;;3.80;;
20758;SDS011;10539;53.686;9.158;2022-10-17T01:53:13;12.80;;;3.43;;
20758;SDS011;10539;53.686;9.158;2022-10-17T01:55:46;9.20;;;3.20;;
20758;SDS011;10539;53.686;9.158;2022-10-17T02:00:46;8.80;;;3.30;;
20758;SDS011;10539;53.686;9.158;2022-10-17T02:03:15;10.00;;;3.13;;
20758;SDS011;10539;53.686;9.158;2022-10-17T02:05:43;10.00;;;3.30;;
20758;SDS011;10539;53.686;9.158;2022-10-17T02:08:10;7.07;;;2.90;;
20758;SDS011;10539;53.686;9.158;2022-10-17T02:10:58;7.40;;;3.53;;
20758;SDS011;10539;53.686;9.158;2022-10-17T02:13:42;13.40;;;3.37;;
20758;SDS011;10539;53.686;9.158;2022-10-17T02:21:53;8.43;;;3.17;;
20758;SDS011;10539;53.686;9.158;2022-10-17T02:27:25;6.90;;;3.00;;
20758;SDS011;10539;53.686;9.158;2022-10-17T02:35:16;10.87;;;3.50;;
20758;SDS011;10539;53.686;9.158;2022-10-17T02:37:44;7.97;;;2.77;;
20758;SDS011;10539;53.686;9.158;2022-10-17T02:40:11;8.63;;;2.87;;
20758;SDS011;10539;53.686;9.158;2022-10-17T02:42:41;7.27;;;3.00;;
20758;SDS011;10539;53.686;9.158;2022-10-17T02:45:09;7.47;;;3.23;;
20758;SDS011;10539;53.686;9.158;2022-10-17T02:50:10;9.10;;;2.90;;
20758;SDS011;10539;53.686;9.158;2022-10-17T02:52:47;9.70;;;3.23;;
20758;SDS011;10539;53.686;9.158;2022-10-17T02:55:30;9.97;;;3.20;;
20758;SDS011;10539;53.686;9.158;2022-10-17T02:58:09;10.93;;;3.17;;
20758;SDS011;10539;53.686;9.158;2022-10-17T03:00:40;9.17;;;3.13;;
20758;SDS011;10539;53.686;9.158;2022-10-17T03:05:46;10.33;;;3.30;;
20758;SDS011;10539;53.686;9.158;2022-10-17T03:08:11;10.57;;;3.50;;
20758;SDS011;10539;53.686;9.158;2022-10-17T03:10:37;11.43;;;3.93;;
20758;SDS011;10539;53.686;9.158;2022-10-17T03:13:03;12.13;;;3.30;;
20758;SDS011;10539;53.686;9.158;2022-10-17T03:15:28;8.77;;;3.33;;
20758;SDS011;10539;53.686;9.158;2022-10-17T03:17:54;7.33;;;3.50;;
20758;SDS011;10539;53.686;9.158;2022-10-17T03:20:20;10.23;;;3.67;;
20758;SDS011;10539;53.686;9.158;2022-10-17T03:22:46;9.47;;;3.20;;
20758;SDS011;10539;53.686;9.158;2022-10-17T03:25:11;8.53;;;3.07;;
20758;SDS011;10539;53.686;9.158;2022-10-17T03:27:37;7.77;;;3.60;;
20758;SDS011;10539;53.686;9.158;2022-10-17T03:30:03;9.10;;;3.60;;
20758;SDS011;10539;53.686;9.158;2022-10-17T03:32:31;8.97;;;3.40;;
20758;SDS011;10539;53.686;9.158;2022-10-17T03:34:57;10.13;;;3.83;;
20758;SDS011;10539;53.686;9.158;2022-10-17T03:37:23;9.13;;;3.60;;
20758;SDS011;10539;53.686;9.158;2022-10-17T03:39:49;12.43;;;3.53;;
20758;SDS011;10539;53.686;9.158;2022-10-17T03:42:15;8.70;;;3.40;;
20758;SDS011;10539;53.686;9.158;2022-10-17T03:44:40;8.37;;;3.60;;
20758;SDS011;10539;53.686;9.158;2022-10-17T03:47:06;10.67;;;4.10;;
20758;SDS011;10539;53.686;9.158;2022-10-17T03:49:32;10.33;;;3.90;;
20758;SDS011;10539;53.686;9.158;2022-10-17T03:51:57;7.93;;;4.40;;
20758;SDS011;10539;53.686;9.158;2022-10-17T03:54:23;5.77;;;3.40;;
20758;SDS011;10539;53.686;9.158;2022-10-17T03:56:49;6.57;;;4.13;;
20758;SDS011;10539;53.686;9.158;2022-10-17T03:59:15;6.13;;;3.73;;
20758;SDS011;10539;53.686;9.158;2022-10-17T04:01:40;7.77;;;3.73;;
20758;SDS011;10539;53.686;9.158;2022-10-17T04:04:07;11.13;;;4.13;;
20758;SDS011;10539;53.686;9.158;2022-10-17T04:06:33;9.43;;;3.70;;
20758;SDS011;10539;53.686;9.158;2022-10-17T04:08:59;11.10;;;3.73;;
20758;SDS011;10539;53.686;9.158;2022-10-17T04:11:25;11.27;;;4.00;;
20758;SDS011;10539;53.686;9.158;2022-10-17T04:13:51;12.40;;;4.00;;
20758;SDS011;10539;53.686;9.158;2022-10-17T04:16:18;8.73;;;3.87;;
20758;SDS011;10539;53.686;9.158;2022-10-17T04:18:44;9.40;;;3.57;;
20758;SDS011;10539;53.686;9.158;2022-10-17T04:21:10;7.10;;;3.90;;
20758;SDS011;10539;53.686;9.158;2022-10-17T04:23:37;8.93;;;3.53;;
20758;SDS011;10539;53.686;9.158;2022-10-17T04:26:04;9.73;;;3.93;;
20758;SDS011;10539;53.686;9.158;2022-10-17T04:28:31;7.43;;;3.90;;
20758;SDS011;10539;53.686;9.158;2022-10-17T04:30:57;7.10;;;3.60;;
20758;SDS011;10539;53.686;9.158;2022-10-17T04:33:28;7.60;;;3.90;;
20758;SDS011;10539;53.686;9.158;2022-10-17T04:35:58;7.90;;;3.90;;
20758;SDS011;10539;53.686;9.158;2022-10-17T04:38:32;8.53;;;3.70;;
20758;SDS011;10539;53.686;9.158;2022-10-17T04:40:58;7.67;;;3.90;;
20758;SDS011;10539;53.686;9.158;2022-10-17T04:43:27;7.07;;;3.90;;
20758;SDS011;10539;53.686;9.158;2022-10-17T04:45:58;7.30;;;4.40;;
20758;SDS011;10539;53.686;9.158;2022-10-17T04:48:26;8.93;;;4.30;;
20758;SDS011;10539;53.686;9.158;2022-10-17T04:50:53;6.40;;;3.80;;
20758;SDS011;10539;53.686;9.158;2022-10-17T04:53:20;6.60;;;4.10;;
20758;SDS011;10539;53.686;9.158;2022-10-17T04:55:46;7.90;;;3.70;;
20758;SDS011;10539;53.686;9.158;2022-10-17T04:58:12;9.40;;;4.20;;
20758;SDS011;10539;53.686;9.158;2022-10-17T05:00:38;6.90;;;4.23;;
20758;SDS011;10539;53.686;9.158;2022-10-17T05:03:04;6.33;;;3.60;;
20758;SDS011;10539;53.686;9.158;2022-10-17T05:05:30;6.13;;;3.60;;
20758;SDS011;10539;53.686;9.158;2022-10-17T05:07:56;9.20;;;4.50;;
20758;SDS011;10539;53.686;9.158;2022-10-17T05:10:22;10.50;;;4.17;;
20758;SDS011;10539;53.686;9.158;2022-10-17T05:12:48;7.27;;;3.97;;
20758;SDS011;10539;53.686;9.158;2022-10-17T05:15:14;6.30;;;3.80;;
20758;SDS011;10539;53.686;9.158;2022-10-17T05:17:40;8.77;;;4.30;;
20758;SDS011;10539;53.686;9.158;2022-10-17T05:20:06;10.10;;;3.77;;
20758;SDS011;10539;53.686;9.158;2022-10-17T05:22:32;9.27;;;4.20;;
20758;SDS011;10539;53.686;9.158;2022-10-17T05:24:58;7.13;;;3.90;;
20758;SDS011;10539;53.686;9.158;2022-10-17T05:27:24;7.17;;;4.20;;
20758;SDS011;10539;53.686;9.158;2022-10-17T05:29:50;6.37;;;4.03;;
20758;SDS011;10539;53.686;9.158;2022-10-17T05:32:16;8.27;;;4.30;;
20758;SDS011;10539;53.686;9.158;2022-10-17T05:34:41;7.27;;;4.33;;
20758;SDS011;10539;53.686;9.158;2022-10-17T05:37:07;6.07;;;4.33;;
20758;SDS011;10539;53.686;9.158;2022-10-17T05:39:33;8.17;;;3.90;;
20758;SDS011;10539;53.686;9.158;2022-10-17T05:41:59;7.63;;;4.60;;
20758;SDS011;10539;53.686;9.158;2022-10-17T05:44:25;8.63;;;4.13;;
20758;SDS011;10539;53.686;9.158;2022-10-17T05:46:51;5.90;;;4.13;;
20758;SDS011;10539;53.686;9.158;2022-10-17T05:49:16;7.57;;;4.20;;
20758;SDS011;10539;53.686;9.158;2022-10-17T05:51:42;6.17;;;4.23;;
20758;SDS011;10539;53.686;9.158;2022-10-17T05:54:09;6.47;;;4.20;;
20758;SDS011;10539;53.686;9.158;2022-10-17T05:56:34;6.80;;;4.33;;
20758;SDS011;10539;53.686;9.158;2022-10-17T05:59:00;8.97;;;5.10;;
20758;SDS011;10539;53.686;9.158;2022-10-17T06:01:26;9.50;;;4.83;;
20758;SDS011;10539;53.686;9.158;2022-10-17T06:03:52;8.17;;;4.73;;
20758;SDS011;10539;53.686;9.158;2022-10-17T06:06:18;6.80;;;4.37;;
20758;SDS011;10539;53.686;9.158;2022-10-17T06:08:44;6.07;;;4.53;;
20758;SDS011;10539;53.686;9.158;2022-10-17T06:11:11;8.03;;;4.00;;
20758;SDS011;10539;53.686;9.158;2022-10-17T06:13:37;7.63;;;4.67;;
20758;SDS011;10539;53.686;9.158;2022-10-17T06:16:04;8.70;;;4.27;;
20758;SDS011;10539;53.686;9.158;2022-10-17T06:18:30;6.37;;;4.43;;
20758;SDS011;10539;53.686;9.158;2022-10-17T06:21:03;7.13;;;4.60;;
20758;SDS011;10539;53.686;9.158;2022-10-17T06:23:29;5.93;;;4.23;;
20758;SDS011;10539;53.686;9.158;2022-10-17T06:25:57;7.00;;;4.40;;
20758;SDS011;10539;53.686;9.158;2022-10-17T06:28:26;6.43;;;4.50;;
20758;SDS011;10539;53.686;9.158;2022-10-17T06:30:52;5.03;;;3.80;;
20758;SDS011;10539;53.686;9.158;2022-10-17T06:33:18;7.77;;;4.80;;
20758;SDS011;10539;53.686;9.158;2022-10-17T06:35:51;7.57;;;4.33;;
20758;SDS011;10539;53.686;9.158;2022-10-17T06:38:18;5.43;;;4.17;;
20758;SDS011;10539;53.686;9.158;2022-10-17T06:40:44;8.13;;;4.20;;
20758;SDS011;10539;53.686;9.158;2022-10-17T06:43:10;6.77;;;4.43;;
20758;SDS011;10539;53.686;9.158;2022-10-17T06:45:37;7.17;;;4.27;;
20758;SDS011;10539;53.686;9.158;2022-10-17T06:48:03;6.63;;;4.40;;
20758;SDS011;10539;53.686;9.158;2022-10-17T06:50:30;7.33;;;4.20;;
20758;SDS011;10539;53.686;9.158;2022-10-17T06:52:55;5.97;;;3.90;;
20758;SDS011;10539;53.686;9.158;2022-10-17T06:55:21;6.93;;;3.90;;
20758;SDS011;10539;53.686;9.158;2022-10-17T06:57:47;5.47;;;3.50;;
20758;SDS011;10539;53.686;9.158;2022-10-17T07:00:13;6.47;;;4.00;;
20758;SDS011;10539;53.686;9.158;2022-10-17T07:02:39;6.77;;;3.40;;
20758;SDS011;10539;53.686;9.158;2022-10-17T07:05:06;5.70;;;3.77;;
20758;SDS011;10539;53.686;9.158;2022-10-17T07:07:32;6.87;;;3.93;;
20758;SDS011;10539;53.686;9.158;2022-10-17T07:09:58;4.80;;;3.63;;
20758;SDS011;10539;53.686;9.158;2022-10-17T07:12:24;6.40;;;3.40;;
20758;SDS011;10539;53.686;9.158;2022-10-17T07:14:49;4.87;;;3.83;;
20758;SDS011;10539;53.686;9.158;2022-10-17T07:17:16;5.87;;;3.57;;
20758;SDS011;10539;53.686;9.158;2022-10-17T07:19:42;3.77;;;3.37;;
20758;SDS011;10539;53.686;9.158;2022-10-17T07:22:09;6.83;;;3.40;;
20758;SDS011;10539;53.686;9.158;2022-10-17T07:24:35;9.10;;;3.70;;
20758;SDS011;10539;53.686;9.158;2022-10-17T07:27:01;7.53;;;3.77;;
20758;SDS011;10539;53.686;9.158;2022-10-17T07:29:27;5.27;;;3.50;;
20758;SDS011;10539;53.686;9.158;2022-10-17T07:31:53;4.13;;;2.97;;
20758;SDS011;10539;53.686;9.158;2022-10-17T07:34:18;3.47;;;3.10;;
20758;SDS011;10539;53.686;9.158;2022-10-17T07:36:44;5.63;;;3.33;;
20758;SDS011;10539;53.686;9.158;2022-10-17T07:39:10;3.70;;;3.30;;
20758;SDS011;10539;53.686;9.158;2022-10-17T07:41:36;5.43;;;3.67;;
20758;SDS011;10539;53.686;9.158;2022-10-17T07:44:02;4.30;;;3.47;;
20758;SDS011;10539;53.686;9.158;2022-10-17T07:46:28;6.27;;;4.17;;
20758;SDS011;10539;53.686;9.158;2022-10-17T07:48:54;6.17;;;4.10;;
20758;SDS011;10539;53.686;9.158;2022-10-17T07:51:20;7.67;;;4.07;;
20758;SDS011;10539;53.686;9.158;2022-10-17T07:53:46;6.37;;;4.23;;
20758;SDS011;10539;53.686;9.158;2022-10-17T07:56:11;5.73;;;4.47;;
20758;SDS011;10539;53.686;9.158;2022-10-17T07:58:37;4.77;;;4.27;;
20758;SDS011;10539;53.686;9.158;2022-10-17T08:01:05;7.07;;;4.53;;
20758;SDS011;10539;53.686;9.158;2022-10-17T08:03:32;7.10;;;4.37;;
20758;SDS011;10539;53.686;9.158;2022-10-17T08:05:59;7.73;;;4.07;;
20758;SDS011;10539;53.686;9.158;2022-10-17T08:08:25;7.17;;;4.33;;
20758;SDS011;10539;53.686;9.158;2022-10-17T08:10:52;5.77;;;4.27;;
20758;SDS011;10539;53.686;9.158;2022-10-17T08:13:20;6.10;;;4.60;;
20758;SDS011;10539;53.686;9.158;2022-10-17T08:15:46;8.87;;;4.90;;
20758;SDS011;10539;53.686;9.158;2022-10-17T08:18:13;9.67;;;4.83;;
20758;SDS011;10539;53.686;9.158;2022-10-17T08:20:43;8.93;;;4.57;;
20758;SDS011;10539;53.686;9.158;2022-10-17T08:23:08;6.70;;;4.40;;
20758;SDS011;10539;53.686;9.158;2022-10-17T08:25:36;9.30;;;5.07;;
20758;SDS011;10539;53.686;9.158;2022-10-17T08:28:03;6.67;;;3.93;;
20758;SDS011;10539;53.686;9.158;2022-10-17T08:30:30;8.83;;;3.80;;
20758;SDS011;10539;53.686;9.158;2022-10-17T08:32:56;7.87;;;4.13;;
20758;SDS011;10539;53.686;9.158;2022-10-17T08:35:21;8.23;;;4.40;;
20758;SDS011;10539;53.686;9.158;2022-10-17T08:37:48;8.63;;;4.43;;
20758;SDS011;10539;53.686;9.158;2022-10-17T08:40:16;8.00;;;4.20;;
20758;SDS011;10539;53.686;9.158;2022-10-17T08:45:35;6.07;;;4.60;;
20758;SDS011;10539;53.686;9.158;2022-10-17T08:48:11;8.63;;;4.47;;
20758;SDS011;10539;53.686;9.158;2022-10-17T08:50:44;6.77;;;4.73;;
20758;SDS011;10539;53.686;9.158;2022-10-17T08:53:22;7.57;;;4.70;;
20758;SDS011;10539;53.686;9.158;2022-10-17T08:55:56;7.67;;;4.30;;
20758;SDS011;10539;53.686;9.158;2022-10-17T08:58:27;6.03;;;4.40;;
20758;SDS011;10539;53.686;9.158;2022-10-17T09:01:44;5.33;;;4.20;;
20758;SDS011;10539;53.686;9.158;2022-10-17T09:06:24;5.17;;;4.23;;
20758;SDS011;10539;53.686;9.158;2022-10-17T09:08:59;8.10;;;4.57;;
20758;SDS011;10539;53.686;9.158;2022-10-17T09:16:56;5.27;;;4.13;;
20758;SDS011;10539;53.686;9.158;2022-10-17T09:19:39;6.43;;;4.23;;
20758;SDS011;10539;53.686;9.158;2022-10-17T09:22:19;7.80;;;4.07;;
20758;SDS011;10539;53.686;9.158;2022-10-17T09:24:52;9.37;;;4.47;;
20758;SDS011;10539;53.686;9.158;2022-10-17T09:30:19;5.83;;;4.53;;
20758;SDS011;10539;53.686;9.158;2022-10-17T09:32:52;6.23;;;4.53;;
20758;SDS011;10539;53.686;9.158;2022-10-17T09:35:19;7.73;;;4.50;;
20758;SDS011;10539;53.686;9.158;2022-10-17T09:37:46;7.43;;;4.73;;
20758;SDS011;10539;53.686;9.158;2022-10-17T09:40:17;7.20;;;4.50;;
20758;SDS011;10539;53.686;9.158;2022-10-17T09:42:58;6.00;;;4.30;;
20758;SDS011;10539;53.686;9.158;2022-10-17T09:45:27;7.00;;;5.00;;
20758;SDS011;10539;53.686;9.158;2022-10-17T09:50:35;9.57;;;4.63;;
20758;SDS011;10539;53.686;9.158;2022-10-17T09:53:08;7.43;;;4.20;;
20758;SDS011;10539;53.686;9.158;2022-10-17T09:55:42;8.57;;;3.87;;
20758;SDS011;10539;53.686;9.158;2022-10-17T09:58:10;7.67;;;4.27;;
20758;SDS011;10539;53.686;9.158;2022-10-17T10:00:43;7.30;;;4.50;;
20758;SDS011;10539;53.686;9.158;2022-10-17T10:05:37;5.30;;;3.77;;
20758;SDS011;10539;53.686;9.158;2022-10-17T10:08:04;7.13;;;3.90;;
20758;SDS011;10539;53.686;9.158;2022-10-17T10:10:43;8.03;;;4.27;;
20758;SDS011;10539;53.686;9.158;2022-10-17T10:15:40;6.90;;;3.67;;
20758;SDS011;10539;53.686;9.158;2022-10-17T10:26:39;6.47;;;4.20;;
20758;SDS011;10539;53.686;9.158;2022-10-17T10:32:08;7.00;;;4.23;;
20758;SDS011;10539;53.686;9.158;2022-10-17T10:34:51;7.43;;;3.87;;
20758;SDS011;10539;53.686;9.158;2022-10-17T10:37:41;6.03;;;4.10;;
20758;SDS011;10539;53.686;9.158;2022-10-17T10:40:18;7.40;;;4.03;;
20758;SDS011;10539;53.686;9.158;2022-10-17T10:42:49;8.97;;;4.10;;
20758;SDS011;10539;53.686;9.158;2022-10-17T10:55:46;9.33;;;4.03;;
20758;SDS011;10539;53.686;9.158;2022-10-17T10:58:50;8.47;;;3.80;;
20758;SDS011;10539;53.686;9.158;2022-10-17T11:06:31;10.17;;;4.67;;
20758;SDS011;10539;53.686;9.158;2022-10-17T11:14:41;7.67;;;3.93;;
20758;SDS011;10539;53.686;9.158;2022-10-17T11:19:49;7.73;;;4.27;;
20758;SDS011;10539;53.686;9.158;2022-10-17T11:22:46;7.87;;;4.37;;
20758;SDS011;10539;53.686;9.158;2022-10-17T11:25:35;5.37;;;4.00;;
20758;SDS011;10539;53.686;9.158;2022-10-17T11:28:03;6.07;;;4.30;;
20758;SDS011;10539;53.686;9.158;2022-10-17T11:30:43;7.40;;;4.37;;
20758;SDS011;10539;53.686;9.158;2022-10-17T11:33:14;12.80;;;5.10;;
20758;SDS011;10539;53.686;9.158;2022-10-17T11:35:44;8.83;;;4.47;;
20758;SDS011;10539;53.686;9.158;2022-10-17T11:38:31;7.53;;;4.53;;
20758;SDS011;10539;53.686;9.158;2022-10-17T11:41:02;7.00;;;4.50;;
20758;SDS011;10539;53.686;9.158;2022-10-17T11:46:40;8.37;;;4.60;;
20758;SDS011;10539;53.686;9.158;2022-10-17T11:49:10;8.73;;;4.67;;
20758;SDS011;10539;53.686;9.158;2022-10-17T11:51:44;5.87;;;4.40;;
20758;SDS011;10539;53.686;9.158;2022-10-17T11:54:17;8.30;;;4.53;;
20758;SDS011;10539;53.686;9.158;2022-10-17T11:56:47;11.07;;;4.87;;
20758;SDS011;10539;53.686;9.158;2022-10-17T12:02:48;8.03;;;5.30;;
20758;SDS011;10539;53.686;9.158;2022-10-17T12:05:33;9.17;;;5.73;;
20758;SDS011;10539;53.686;9.158;2022-10-17T12:08:19;9.90;;;6.00;;
20758;SDS011;10539;53.686;9.158;2022-10-17T12:13:46;10.60;;;6.50;;
20758;SDS011;10539;53.686;9.158;2022-10-17T12:18:45;15.43;;;7.57;;
20758;SDS011;10539;53.686;9.158;2022-10-17T12:21:11;10.50;;;7.07;;
20758;SDS011;10539;53.686;9.158;2022-10-17T12:23:37;11.33;;;7.90;;
20758;SDS011;10539;53.686;9.158;2022-10-17T12:26:05;11.10;;;7.80;;
20758;SDS011;10539;53.686;9.158;2022-10-17T12:33:47;11.50;;;8.27;;
20758;SDS011;10539;53.686;9.158;2022-10-17T12:38:45;11.57;;;8.70;;
20758;SDS011;10539;53.686;9.158;2022-10-17T12:41:12;10.80;;;8.53;;
20758;SDS011;10539;53.686;9.158;2022-10-17T12:46:10;13.33;;;9.03;;
20758;SDS011;10539;53.686;9.158;2022-10-17T12:51:09;13.30;;;10.50;;
20758;SDS011;10539;53.686;9.158;2022-10-17T12:56:11;15.37;;;10.80;;
20758;SDS011;10539;53.686;9.158;2022-10-17T12:58:49;16.13;;;11.70;;
20758;SDS011;10539;53.686;9.158;2022-10-17T13:01:25;16.80;;;11.47;;
20758;SDS011;10539;53.686;9.158;2022-10-17T13:03:53;16.20;;;11.97;;
20758;SDS011;10539;53.686;9.158;2022-10-17T13:06:21;17.63;;;10.90;;
20758;SDS011;10539;53.686;9.158;2022-10-17T13:08:53;16.50;;;11.13;;
20758;SDS011;10539;53.686;9.158;2022-10-17T13:11:23;17.87;;;11.57;;
20758;SDS011;10539;53.686;9.158;2022-10-17T13:13:54;16.70;;;11.23;;
20758;SDS011;10539;53.686;9.158;2022-10-17T13:18:58;14.67;;;11.27;;
20758;SDS011;10539;53.686;9.158;2022-10-17T13:21:25;17.53;;;11.33;;
20758;SDS011;10539;53.686;9.158;2022-10-17T13:23:51;15.60;;;11.33;;
20758;SDS011;10539;53.686;9.158;2022-10-17T13:26:25;19.87;;;11.57;;
20758;SDS011;10539;53.686;9.158;2022-10-17T13:29:11;21.20;;;11.87;;
20758;SDS011;10539;53.686;9.158;2022-10-17T13:31:39;16.10;;;11.97;;
20758;SDS011;10539;53.686;9.158;2022-10-17T13:34:20;17.70;;;12.70;;
20758;SDS011;10539;53.686;9.158;2022-10-17T13:36:49;15.67;;;11.93;;
20758;SDS011;10539;53.686;9.158;2022-10-17T13:39:22;21.13;;;13.20;;
20758;SDS011;10539;53.686;9.158;2022-10-17T13:41:50;18.00;;;12.90;;
20758;SDS011;10539;53.686;9.158;2022-10-17T13:44:22;22.17;;;14.37;;
20758;SDS011;10539;53.686;9.158;2022-10-17T13:46:50;21.93;;;13.97;;
20758;SDS011;10539;53.686;9.158;2022-10-17T13:49:18;20.57;;;14.57;;
20758;SDS011;10539;53.686;9.158;2022-10-17T13:51:48;21.50;;;13.93;;
20758;SDS011;10539;53.686;9.158;2022-10-17T13:54:16;18.93;;;13.00;;
20758;SDS011;10539;53.686;9.158;2022-10-17T13:57:03;20.63;;;13.83;;
20758;SDS011;10539;53.686;9.158;2022-10-17T13:59:37;20.00;;;13.47;;
20758;SDS011;10539;53.686;9.158;2022-10-17T14:02:04;19.43;;;13.00;;
20758;SDS011;10539;53.686;9.158;2022-10-17T14:04:37;17.40;;;12.57;;
20758;SDS011;10539;53.686;9.158;2022-10-17T14:07:03;17.33;;;12.77;;
20758;SDS011;10539;53.686;9.158;2022-10-17T14:09:31;16.73;;;12.40;;
20758;SDS011;10539;53.686;9.158;2022-10-17T14:12:02;16.37;;;11.60;;
20758;SDS011;10539;53.686;9.158;2022-10-17T14:14:32;14.17;;;10.77;;
20758;SDS011;10539;53.686;9.158;2022-10-17T14:16:58;14.00;;;10.27;;
20758;SDS011;10539;53.686;9.158;2022-10-17T14:19:31;12.40;;;9.10;;
20758;SDS011;10539;53.686;9.158;2022-10-17T14:25:02;12.80;;;9.03;;
20758;SDS011;10539;53.686;9.158;2022-10-17T14:30:29;11.87;;;9.10;;
20758;SDS011;10539;53.686;9.158;2022-10-17T14:32:59;15.40;;;9.60;;
20758;SDS011;10539;53.686;9.158;2022-10-17T14:35:28;14.50;;;8.47;;
20758;SDS011;10539;53.686;9.158;2022-10-17T14:37:58;11.50;;;8.30;;
20758;SDS011;10539;53.686;9.158;2022-10-17T14:40:26;10.40;;;7.10;;
20758;SDS011;10539;53.686;9.158;2022-10-17T14:42:53;12.53;;;7.67;;
20758;SDS011;10539;53.686;9.158;2022-10-17T14:47:49;9.87;;;7.03;;
20758;SDS011;10539;53.686;9.158;2022-10-17T14:52:57;13.33;;;7.37;;
20758;SDS011;10539;53.686;9.158;2022-10-17T14:55:24;10.53;;;8.07;;
20758;SDS011;10539;53.686;9.158;2022-10-17T14:57:52;12.30;;;8.00;;
20758;SDS011;10539;53.686;9.158;2022-10-17T15:00:18;11.17;;;8.47;;
20758;SDS011;10539;53.686;9.158;2022-10-17T15:02:46;13.53;;;8.47;;
20758;SDS011;10539;53.686;9.158;2022-10-17T15:05:12;11.77;;;8.87;;
20758;SDS011;10539;53.686;9.158;2022-10-17T15:07:40;12.67;;;8.73;;
20758;SDS011;10539;53.686;9.158;2022-10-17T15:10:24;17.67;;;9.07;;
20758;SDS011;10539;53.686;9.158;2022-10-17T15:12:50;11.20;;;8.90;;
20758;SDS011;10539;53.686;9.158;2022-10-17T15:15:16;11.97;;;8.60;;
20758;SDS011;10539;53.686;9.158;2022-10-17T15:17:42;15.60;;;9.37;;
20758;SDS011;10539;53.686;9.158;2022-10-17T15:20:15;12.63;;;9.13;;
20758;SDS011;10539;53.686;9.158;2022-10-17T15:22:41;12.83;;;9.87;;
20758;SDS011;10539;53.686;9.158;2022-10-17T15:25:07;12.10;;;9.17;;
20758;SDS011;10539;53.686;9.158;2022-10-17T15:27:33;15.37;;;9.47;;
20758;SDS011;10539;53.686;9.158;2022-10-17T15:29:59;13.37;;;9.43;;
20758;SDS011;10539;53.686;9.158;2022-10-17T15:32:26;11.70;;;9.73;;
20758;SDS011;10539;53.686;9.158;2022-10-17T15:34:51;12.20;;;8.90;;
20758;SDS011;10539;53.686;9.158;2022-10-17T15:37:19;15.40;;;9.40;;
20758;SDS011;10539;53.686;9.158;2022-10-17T15:39:50;10.17;;;8.07;;
20758;SDS011;10539;53.686;9.158;2022-10-17T15:42:20;13.60;;;8.80;;
20758;SDS011;10539;53.686;9.158;2022-10-17T15:44:47;12.30;;;9.17;;
20758;SDS011;10539;53.686;9.158;2022-10-17T15:49:51;10.30;;;8.20;;
20758;SDS011;10539;53.686;9.158;2022-10-17T15:52:18;12.60;;;8.43;;
20758;SDS011;10539;53.686;9.158;2022-10-17T15:54:44;9.63;;;8.03;;
20758;SDS011;10539;53.686;9.158;2022-10-17T15:57:17;10.73;;;7.73;;
20758;SDS011;10539;53.686;9.158;2022-10-17T15:59:45;10.03;;;7.87;;
20758;SDS011;10539;53.686;9.158;2022-10-17T16:02:13;16.03;;;8.50;;
20758;SDS011;10539;53.686;9.158;2022-10-17T16:04:40;10.53;;;7.87;;
20758;SDS011;10539;53.686;9.158;2022-10-17T16:07:06;10.27;;;7.93;;
20758;SDS011;10539;53.686;9.158;2022-10-17T16:09:32;11.27;;;6.70;;
20758;SDS011;10539;53.686;9.158;2022-10-17T16:11:59;10.53;;;7.60;;
20758;SDS011;10539;53.686;9.158;2022-10-17T16:14:26;10.13;;;8.00;;
20758;SDS011;10539;53.686;9.158;2022-10-17T16:16:52;9.50;;;7.13;;
20758;SDS011;10539;53.686;9.158;2022-10-17T16:19:17;7.67;;;6.60;;
20758;SDS011;10539;53.686;9.158;2022-10-17T16:21:43;11.00;;;7.27;;
20758;SDS011;10539;53.686;9.158;2022-10-17T16:24:09;8.67;;;6.43;;
20758;SDS011;10539;53.686;9.158;2022-10-17T16:26:36;10.50;;;6.50;;
20758;SDS011;10539;53.686;9.158;2022-10-17T16:29:05;9.43;;;6.30;;
20758;SDS011;10539;53.686;9.158;2022-10-17T16:31:33;8.60;;;6.60;;
20758;SDS011;10539;53.686;9.158;2022-10-17T16:34:00;8.70;;;6.30;;
20758;SDS011;10539;53.686;9.158;2022-10-17T16:36:27;8.23;;;5.77;;
20758;SDS011;10539;53.686;9.158;2022-10-17T16:38:53;9.93;;;6.27;;
20758;SDS011;10539;53.686;9.158;2022-10-17T16:41:26;7.93;;;5.70;;
20758;SDS011;10539;53.686;9.158;2022-10-17T16:43:54;7.43;;;4.70;;
20758;SDS011;10539;53.686;9.158;2022-10-17T16:46:22;7.80;;;5.33;;
20758;SDS011;10539;53.686;9.158;2022-10-17T16:48:49;8.00;;;5.23;;
20758;SDS011;10539;53.686;9.158;2022-10-17T16:51:16;10.87;;;5.87;;
20758;SDS011;10539;53.686;9.158;2022-10-17T16:53:43;6.87;;;4.83;;
20758;SDS011;10539;53.686;9.158;2022-10-17T16:56:18;8.87;;;5.43;;
20758;SDS011;10539;53.686;9.158;2022-10-17T16:58:46;9.13;;;5.20;;
20758;SDS011;10539;53.686;9.158;2022-10-17T17:01:16;10.30;;;5.53;;
20758;SDS011;10539;53.686;9.158;2022-10-17T17:03:44;7.13;;;5.00;;
20758;SDS011;10539;53.686;9.158;2022-10-17T17:06:12;7.13;;;5.37;;
20758;SDS011;10539;53.686;9.158;2022-10-17T17:08:40;8.93;;;5.10;;